^^
Datos históricos de la estación: Murcia-Puente Tocinos
Diario Informe para Mayo 16, 2019 Unidades:  Ambas    Inglés   Métrico
Diario Semanal Mensual Anual Configurable
  Máximo: Mínimo: Media:
Temperatura: 75.4 °F /  24.1 °C 63.1 °F /  17.3 °C 68.5 °F /  20.3 °C
Punto de rocio: 60.4 °F /  15.8 °C 49.8 °F /  9.9 °C 56.1 °F /  13.4 °C
Humedad: 84% 46% 66%
Velocidad viento: 12mph /  19.3km/h - 5.8mph /  9.4km/h
Racha viento: 26.5mph /  42.6km/h - -
Viento- - ENE
Presión: 29.9 in /  1012.1 hPa 29.7 in /  1004.3 hPa -
Precipitación: 0 in /  0.0 mm    
Historical Graphs
 
 
Tabla de datos para Mayo 16, 2019
Hora Temperatura Punto de rocio Presión Viento Velocidad viento Racha viento Humedad Intensidad lluvia(por hora) Nubes
00:00 66.7 °F /  19.3 °C 60.4 °F /  15.8 °C 29.9in /  1011.7hPa NE 7mph /  11.3km/h 15mph /  24.1km/h 80% 0in /  0.0mm CLR
00:05 66.4 °F /  19.1 °C 59.7 °F /  15.4 °C 29.9in /  1011.9hPa NNE 6.9mph /  11.1km/h 17.3mph /  27.8km/h 79% 0in /  0.0mm CLR
00:07 66.2 °F /  19.0 °C 59.5 °F /  15.3 °C 29.9in /  1011.9hPa ENE 6.9mph /  11.1km/h 15mph /  24.1km/h 79% 0in /  0.0mm CLR
00:13 66 °F /  18.9 °C 59.4 °F /  15.2 °C 29.9in /  1011.9hPa NE 10.7mph /  17.2km/h 13.8mph /  22.2km/h 79% 0in /  0.0mm CLR
00:40 65.5 °F /  18.6 °C 58.5 °F /  14.7 °C 29.9in /  1012.0hPa East 7mph /  11.3km/h 14mph /  22.5km/h 78% 0in /  0.0mm CLR
00:44 65.5 °F /  18.6 °C 58.5 °F /  14.7 °C 29.9in /  1012.0hPa ESE 6.9mph /  11.1km/h 12.7mph /  20.4km/h 78% 0in /  0.0mm CLR
00:50 65.5 °F /  18.6 °C 58.5 °F /  14.7 °C 29.9in /  1012.0hPa NE 9mph /  14.5km/h 15mph /  24.1km/h 78% 0in /  0.0mm CLR
00:55 65.5 °F /  18.6 °C 58.5 °F /  14.7 °C 29.9in /  1012.0hPa ENE 9mph /  14.5km/h 12mph /  19.3km/h 78% 0in /  0.0mm CLR
01:00 65.5 °F /  18.6 °C 58.8 °F /  14.9 °C 29.9in /  1012.0hPa ENE 6mph /  9.7km/h 9mph /  14.5km/h 79% 0in /  0.0mm CLR
01:05 65.5 °F /  18.6 °C 58.8 °F /  14.9 °C 29.9in /  1012.0hPa NE 6mph /  9.7km/h 12mph /  19.3km/h 79% 0in /  0.0mm CLR
01:10 65.1 °F /  18.4 °C 58.5 °F /  14.7 °C 29.9in /  1012.0hPa NE 6mph /  9.7km/h 14mph /  22.5km/h 79% 0in /  0.0mm CLR
01:15 64.9 °F /  18.3 °C 58.3 °F /  14.6 °C 29.9in /  1012.0hPa NE 6mph /  9.7km/h 14mph /  22.5km/h 79% 0in /  0.0mm CLR
01:20 64.9 °F /  18.3 °C 58.3 °F /  14.6 °C 29.9in /  1012.0hPa NE 8mph /  12.9km/h 13mph /  20.9km/h 79% 0in /  0.0mm CLR
01:25 64.8 °F /  18.2 °C 58.5 °F /  14.7 °C 29.9in /  1012.0hPa NE 8mph /  12.9km/h 14mph /  22.5km/h 80% 0in /  0.0mm CLR
01:30 64.6 °F /  18.1 °C 58.3 °F /  14.6 °C 29.9in /  1012.0hPa NE 8mph /  12.9km/h 12mph /  19.3km/h 80% 0in /  0.0mm CLR
01:35 64.6 °F /  18.1 °C 58.3 °F /  14.6 °C 29.9in /  1012.1hPa ENE 7.6mph /  12.2km/h 5.8mph /  9.3km/h 80% 0in /  0.0mm CLR
01:39 64.4 °F /  18.0 °C 58.1 °F /  14.5 °C 29.9in /  1012.1hPa NE 5.4mph /  8.7km/h 5.8mph /  9.3km/h 80% 0in /  0.0mm CLR
01:45 64.2 °F /  17.9 °C 57.9 °F /  14.4 °C 29.9in /  1012.1hPa NE 6mph /  9.7km/h 13mph /  20.9km/h 80% 0in /  0.0mm CLR
01:49 64.2 °F /  17.9 °C 57.9 °F /  14.4 °C 29.9in /  1012.0hPa North 5.9mph /  9.5km/h 8.1mph /  13.0km/h 80% 0in /  0.0mm CLR
01:55 64 °F /  17.8 °C 57.7 °F /  14.3 °C 29.9in /  1012.0hPa NNE 6mph /  9.7km/h 6mph /  9.7km/h 80% 0in /  0.0mm CLR
02:00 64 °F /  17.8 °C 58.1 °F /  14.5 °C 29.9in /  1012.0hPa NNE 5mph /  8.0km/h 7mph /  11.3km/h 81% 0in /  0.0mm CLR
02:05 63.9 °F /  17.7 °C 57.9 °F /  14.4 °C 29.9in /  1012.1hPa NNE 5mph /  8.0km/h 5mph /  8.0km/h 81% 0in /  0.0mm CLR
02:10 63.9 °F /  17.7 °C 57.9 °F /  14.4 °C 29.9in /  1012.1hPa NNE 3mph /  4.8km/h 8mph /  12.9km/h 81% 0in /  0.0mm CLR
02:15 63.9 °F /  17.7 °C 57.9 °F /  14.4 °C 29.9in /  1012.1hPa NNE 3mph /  4.8km/h 8mph /  12.9km/h 81% 0in /  0.0mm CLR
02:16 63.7 °F /  17.6 °C 57.7 °F /  14.3 °C 29.9in /  1012.1hPa NNE 3.1mph /  5.0km/h 5.8mph /  9.3km/h 81% 0in /  0.0mm CLR
02:40 63.9 °F /  17.7 °C 57.7 °F /  14.3 °C 29.9in /  1012.1hPa NNE 3mph /  4.8km/h 6mph /  9.7km/h 81% 0in /  0.0mm CLR
02:45 63.3 °F /  17.4 °C 57.7 °F /  14.3 °C 29.9in /  1011.9hPa NNE 3mph /  4.8km/h 8mph /  12.9km/h 82% 0in /  0.0mm CLR
02:50 63.3 °F /  17.4 °C 57.7 °F /  14.3 °C 29.9in /  1011.8hPa NE 5mph /  8.0km/h 9mph /  14.5km/h 82% 0in /  0.0mm CLR
02:55 63.3 °F /  17.4 °C 58.1 °F /  14.5 °C 29.9in /  1011.8hPa NE 5mph /  8.0km/h 7mph /  11.3km/h 83% 0in /  0.0mm CLR
03:00 63.3 °F /  17.4 °C 58.1 °F /  14.5 °C 29.9in /  1011.8hPa NE 5mph /  8.0km/h 6mph /  9.7km/h 83% 0in /  0.0mm CLR
03:05 63.3 °F /  17.4 °C 58.1 °F /  14.5 °C 29.9in /  1011.6hPa NE 5mph /  8.0km/h 6mph /  9.7km/h 83% 0in /  0.0mm CLR
03:10 63.3 °F /  17.4 °C 58.1 °F /  14.5 °C 29.9in /  1011.6hPa NE 3mph /  4.8km/h 5mph /  8.0km/h 83% 0in /  0.0mm CLR
03:15 63.1 °F /  17.3 °C 57.6 °F /  14.2 °C 29.9in /  1011.6hPa NNE 3mph /  4.8km/h 6mph /  9.7km/h 82% 0in /  0.0mm CLR
03:20 63.1 °F /  17.3 °C 57.6 °F /  14.2 °C 29.9in /  1011.7hPa NNE 3mph /  4.8km/h 5mph /  8.0km/h 82% 0in /  0.0mm CLR
03:25 63.1 °F /  17.3 °C 57.6 °F /  14.2 °C 29.9in /  1011.7hPa NNE 3mph /  4.8km/h 5mph /  8.0km/h 82% 0in /  0.0mm CLR
03:30 63.3 °F /  17.4 °C 57.7 °F /  14.3 °C 29.9in /  1011.7hPa NNE 2mph /  3.2km/h 5mph /  8.0km/h 82% 0in /  0.0mm CLR
03:35 63.3 °F /  17.4 °C 57.7 °F /  14.3 °C 29.9in /  1011.7hPa NNE 2mph /  3.2km/h 5mph /  8.0km/h 82% 0in /  0.0mm CLR
03:40 63.3 °F /  17.4 °C 57.7 °F /  14.3 °C 29.9in /  1011.7hPa North 2mph /  3.2km/h 5mph /  8.0km/h 82% 0in /  0.0mm CLR
03:45 63.3 °F /  17.4 °C 57.4 °F /  14.1 °C 29.9in /  1011.7hPa North 2mph /  3.2km/h 6mph /  9.7km/h 81% 0in /  0.0mm CLR
03:50 63.3 °F /  17.4 °C 57.4 °F /  14.1 °C 29.9in /  1011.5hPa NNE 2mph /  3.2km/h 6mph /  9.7km/h 81% 0in /  0.0mm CLR
03:55 63.3 °F /  17.4 °C 57.4 °F /  14.1 °C 29.9in /  1011.5hPa NNE 2mph /  3.2km/h 5mph /  8.0km/h 81% 0in /  0.0mm CLR
04:00 63.3 °F /  17.4 °C 57.4 °F /  14.1 °C 29.9in /  1011.5hPa North 3mph /  4.8km/h 5mph /  8.0km/h 81% 0in /  0.0mm CLR
04:05 63.3 °F /  17.4 °C 57.4 °F /  14.1 °C 29.9in /  1011.6hPa NNE 3mph /  4.8km/h 5mph /  8.0km/h 81% 0in /  0.0mm CLR
04:10 63.3 °F /  17.4 °C 57.4 °F /  14.1 °C 29.9in /  1011.6hPa NNE 2.9mph /  4.7km/h 2.3mph /  3.7km/h 81% 0in /  0.0mm CLR
04:15 63.3 °F /  17.4 °C 57.4 °F /  14.1 °C 29.9in /  1011.6hPa NE 2mph /  3.2km/h 5mph /  8.0km/h 81% 0in /  0.0mm CLR
04:20 63.3 °F /  17.4 °C 57.4 °F /  14.1 °C 29.9in /  1011.6hPa NE 2mph /  3.2km/h 4mph /  6.4km/h 81% 0in /  0.0mm CLR
04:25 63.3 °F /  17.4 °C 57.4 °F /  14.1 °C 29.9in /  1011.6hPa NE 2mph /  3.2km/h 5mph /  8.0km/h 81% 0in /  0.0mm CLR
04:30 63.3 °F /  17.4 °C 57.4 °F /  14.1 °C 29.9in /  1011.6hPa NE 2mph /  3.2km/h 4mph /  6.4km/h 81% 0in /  0.0mm CLR
04:35 63.5 °F /  17.5 °C 57.6 °F /  14.2 °C 29.9in /  1011.5hPa NNE 2mph /  3.2km/h 5mph /  8.0km/h 81% 0in /  0.0mm CLR
04:40 63.5 °F /  17.5 °C 57.6 °F /  14.2 °C 29.9in /  1011.5hPa NNE 2mph /  3.2km/h 5mph /  8.0km/h 81% 0in /  0.0mm CLR
04:45 63.5 °F /  17.5 °C 57.6 °F /  14.2 °C 29.9in /  1011.5hPa NNE 2mph /  3.2km/h 5mph /  8.0km/h 81% 0in /  0.0mm CLR
04:50 63.5 °F /  17.5 °C 57.6 °F /  14.2 °C 29.9in /  1011.4hPa NNE 2mph /  3.2km/h 4mph /  6.4km/h 81% 0in /  0.0mm CLR
04:55 63.5 °F /  17.5 °C 57.6 °F /  14.2 °C 29.9in /  1011.4hPa NNE 2mph /  3.2km/h 4mph /  6.4km/h 81% 0in /  0.0mm CLR
05:00 63.5 °F /  17.5 °C 57.6 °F /  14.2 °C 29.9in /  1011.4hPa NE 2mph /  3.2km/h 4mph /  6.4km/h 81% 0in /  0.0mm CLR
05:05 63.5 °F /  17.5 °C 57.6 °F /  14.2 °C 29.9in /  1011.4hPa NE 2mph /  3.2km/h 5mph /  8.0km/h 81% 0in /  0.0mm CLR
05:10 63.3 °F /  17.4 °C 57.4 °F /  14.1 °C 29.9in /  1011.4hPa NNE 2mph /  3.2km/h 5mph /  8.0km/h 81% 0in /  0.0mm CLR
05:15 63.3 °F /  17.4 °C 57.4 °F /  14.1 °C 29.9in /  1011.4hPa NNE 2mph /  3.2km/h 3mph /  4.8km/h 81% 0in /  0.0mm CLR
05:20 63.3 °F /  17.4 °C 57.4 °F /  14.1 °C 29.9in /  1011.4hPa NNE 2mph /  3.2km/h 5mph /  8.0km/h 81% 0in /  0.0mm CLR
05:25 63.3 °F /  17.4 °C 57.4 °F /  14.1 °C 29.9in /  1011.4hPa NE 2mph /  3.2km/h 5mph /  8.0km/h 81% 0in /  0.0mm CLR
05:30 63.3 °F /  17.4 °C 57.4 °F /  14.1 °C 29.9in /  1011.4hPa ENE 2mph /  3.2km/h 5mph /  8.0km/h 81% 0in /  0.0mm CLR
05:35 63.3 °F /  17.4 °C 57.4 °F /  14.1 °C 29.9in /  1011.3hPa NE 2mph /  3.2km/h 5mph /  8.0km/h 81% 0in /  0.0mm CLR
05:40 63.3 °F /  17.4 °C 57.4 °F /  14.1 °C 29.9in /  1011.3hPa NE 2mph /  3.2km/h 2mph /  3.2km/h 81% 0in /  0.0mm CLR
05:45 63.3 °F /  17.4 °C 57.4 °F /  14.1 °C 29.9in /  1011.3hPa NNE 2mph /  3.2km/h   81% 0in /  0.0mm CLR
05:50 63.3 °F /  17.4 °C 57.4 °F /  14.1 °C 29.9in /  1011.2hPa Calm     81% 0in /  0.0mm CLR
05:55 63.5 °F /  17.5 °C 57.6 °F /  14.2 °C 29.9in /  1011.2hPa Calm     81% 0in /  0.0mm CLR
06:00 63.5 °F /  17.5 °C 57.6 °F /  14.2 °C 29.9in /  1011.2hPa Calm     81% 0in /  0.0mm CLR
06:05 63.7 °F /  17.6 °C 57.7 °F /  14.3 °C 29.9in /  1011.1hPa Calm   4mph /  6.4km/h 81% 0in /  0.0mm CLR
06:10 63.7 °F /  17.6 °C 57.7 °F /  14.3 °C 29.9in /  1011.1hPa Calm     81% 0in /  0.0mm CLR
06:15 63.7 °F /  17.6 °C 57.7 °F /  14.3 °C 29.9in /  1011.1hPa Calm   2mph /  3.2km/h 81% 0in /  0.0mm CLR
06:20 63.7 °F /  17.6 °C 57.7 °F /  14.3 °C 29.9in /  1011.1hPa North 1.4mph /  2.3km/h   81% 0in /  0.0mm CLR
06:25 63.7 °F /  17.6 °C 57.7 °F /  14.3 °C 29.9in /  1011.1hPa NNE 1mph /  1.6km/h 5mph /  8.0km/h 81% 0in /  0.0mm CLR
06:30 63.7 °F /  17.6 °C 57.7 °F /  14.3 °C 29.9in /  1011.1hPa NE 2mph /  3.2km/h 5mph /  8.0km/h 81% 0in /  0.0mm CLR
06:35 63.5 °F /  17.5 °C 57.6 °F /  14.2 °C 29.9in /  1011.2hPa NE 2mph /  3.2km/h 6mph /  9.7km/h 81% 0in /  0.0mm CLR
06:40 63.7 °F /  17.6 °C 57.7 °F /  14.3 °C 29.9in /  1011.2hPa NE 3mph /  4.8km/h 6mph /  9.7km/h 81% 0in /  0.0mm CLR
06:45 63.7 °F /  17.6 °C 57.7 °F /  14.3 °C 29.9in /  1011.2hPa NNE 3mph /  4.8km/h 6mph /  9.7km/h 81% 0in /  0.0mm CLR
06:50 63.7 °F /  17.6 °C 57.7 °F /  14.3 °C 29.9in /  1011.2hPa NNE 3mph /  4.8km/h 7mph /  11.3km/h 81% 0in /  0.0mm CLR
06:55 63.7 °F /  17.6 °C 57.9 °F /  14.4 °C 29.9in /  1011.2hPa NE 3mph /  4.8km/h 9mph /  14.5km/h 82% 0in /  0.0mm CLR
07:00 63.7 °F /  17.6 °C 58.1 °F /  14.5 °C 29.9in /  1011.2hPa NE 5mph /  8.0km/h 7mph /  11.3km/h 82% 0in /  0.0mm CLR
07:05 63.5 °F /  17.5 °C 57.9 °F /  14.4 °C 29.9in /  1011.2hPa NNE 5mph /  8.0km/h 7mph /  11.3km/h 82% 0in /  0.0mm CLR
07:10 63.5 °F /  17.5 °C 57.9 °F /  14.4 °C 29.9in /  1011.2hPa NNE 5mph /  8.0km/h 7mph /  11.3km/h 82% 0in /  0.0mm CLR
07:15 63.7 °F /  17.6 °C 58.5 °F /  14.7 °C 29.9in /  1011.2hPa NNE 5mph /  8.0km/h 6mph /  9.7km/h 83% 0in /  0.0mm CLR
07:20 63.7 °F /  17.6 °C 58.5 °F /  14.7 °C 29.9in /  1011.2hPa NNE 3mph /  4.8km/h 6mph /  9.7km/h 83% 0in /  0.0mm CLR
07:25 63.7 °F /  17.6 °C 58.5 °F /  14.7 °C 29.9in /  1011.2hPa NNE 3mph /  4.8km/h 5mph /  8.0km/h 83% 0in /  0.0mm CLR
07:30 63.7 °F /  17.6 °C 58.5 °F /  14.7 °C 29.9in /  1011.2hPa NE 3mph /  4.8km/h 6mph /  9.7km/h 83% 0in /  0.0mm CLR
07:35 63.7 °F /  17.6 °C 58.5 °F /  14.7 °C 29.9in /  1011.2hPa NE 3mph /  4.8km/h 7mph /  11.3km/h 83% 0in /  0.0mm CLR
07:40 63.7 °F /  17.6 °C 58.5 °F /  14.7 °C 29.9in /  1011.2hPa NE 3mph /  4.8km/h 7mph /  11.3km/h 83% 0in /  0.0mm CLR
07:45 63.9 °F /  17.7 °C 58.8 °F /  14.9 °C 29.9in /  1011.2hPa ENE 3mph /  4.8km/h 6mph /  9.7km/h 84% 0in /  0.0mm CLR
07:50 63.9 °F /  17.7 °C 58.8 °F /  14.9 °C 29.9in /  1011.3hPa NE 3mph /  4.8km/h 5mph /  8.0km/h 84% 0in /  0.0mm CLR
07:55 64 °F /  17.8 °C 59.2 °F /  15.1 °C 29.9in /  1011.3hPa NE 3mph /  4.8km/h 5mph /  8.0km/h 84% 0in /  0.0mm CLR
08:00 64 °F /  17.8 °C 58.8 °F /  14.9 °C 29.9in /  1011.3hPa NE 2mph /  3.2km/h 5mph /  8.0km/h 83% 0in /  0.0mm CLR
08:05 64.4 °F /  18.0 °C 59.2 °F /  15.1 °C 29.9in /  1011.4hPa NNE 2mph /  3.2km/h 8mph /  12.9km/h 83% 0in /  0.0mm CLR
08:10 64.8 °F /  18.2 °C 59.2 °F /  15.1 °C 29.9in /  1011.4hPa NNE 5mph /  8.0km/h 9mph /  14.5km/h 82% 0in /  0.0mm CLR
08:15 64.9 °F /  18.3 °C 59.2 °F /  15.1 °C 29.9in /  1011.4hPa NNE 5mph /  8.0km/h 7mph /  11.3km/h 81% 0in /  0.0mm CLR
08:20 65.5 °F /  18.6 °C 59.2 °F /  15.1 °C 29.9in /  1011.4hPa NNE 5mph /  8.0km/h 9mph /  14.5km/h 80% 0in /  0.0mm CLR
08:25 65.7 °F /  18.7 °C 59 °F /  15.0 °C 29.9in /  1011.4hPa NE 5mph /  8.0km/h 10mph /  16.1km/h 79% 0in /  0.0mm CLR
08:30 65.8 °F /  18.8 °C 58.5 °F /  14.7 °C 29.9in /  1011.4hPa NE 6mph /  9.7km/h 10mph /  16.1km/h 77% 0in /  0.0mm CLR
08:35 65.5 °F /  18.6 °C 58.5 °F /  14.7 °C 29.9in /  1011.4hPa NE 6mph /  9.7km/h 10mph /  16.1km/h 78% 0in /  0.0mm CLR
08:40 65.8 °F /  18.8 °C 58.5 °F /  14.7 °C 29.9in /  1011.4hPa NE 6mph /  9.7km/h 9mph /  14.5km/h 77% 0in /  0.0mm CLR
08:45 66 °F /  18.9 °C 58.3 °F /  14.6 °C 29.9in /  1011.4hPa NE 5.9mph /  9.5km/h 8.1mph /  13.0km/h 76% 0in /  0.0mm CLR
08:50 65.8 °F /  18.8 °C 57.7 °F /  14.3 °C 29.9in /  1011.5hPa NE 6mph /  9.7km/h 8mph /  12.9km/h 75% 0in /  0.0mm CLR
08:55 66 °F /  18.9 °C 57.6 °F /  14.2 °C 29.9in /  1011.5hPa NE 6mph /  9.7km/h 8mph /  12.9km/h 74% 0in /  0.0mm CLR
09:00 66.4 °F /  19.1 °C 57 °F /  13.9 °C 29.9in /  1011.5hPa NE 5mph /  8.0km/h 10mph /  16.1km/h 72% 0in /  0.0mm CLR
09:05 66.4 °F /  19.1 °C 57 °F /  13.9 °C 29.9in /  1011.4hPa NE 5mph /  8.0km/h 8mph /  12.9km/h 72% 0in /  0.0mm CLR
09:10 66.7 °F /  19.3 °C 56.7 °F /  13.7 °C 29.9in /  1011.4hPa NE 5mph /  8.0km/h 9mph /  14.5km/h 70% 0in /  0.0mm CLR
09:15 67.3 °F /  19.6 °C 56.8 °F /  13.8 °C 29.9in /  1011.4hPa ENE 5mph /  8.0km/h 7mph /  11.3km/h 69% 0in /  0.0mm CLR
09:20 67.6 °F /  19.8 °C 57.6 °F /  14.2 °C 29.9in /  1011.4hPa ENE 3mph /  4.8km/h 9mph /  14.5km/h 70% 0in /  0.0mm CLR
09:25 67.6 °F /  19.8 °C 57.6 °F /  14.2 °C 29.9in /  1011.4hPa ENE 3mph /  4.8km/h 7mph /  11.3km/h 70% 0in /  0.0mm CLR
09:30 67.6 °F /  19.8 °C 57.6 °F /  14.2 °C 29.9in /  1011.4hPa NE 5mph /  8.0km/h 10mph /  16.1km/h 70% 0in /  0.0mm CLR
09:35 67.5 °F /  19.7 °C 57.4 °F /  14.1 °C 29.9in /  1011.3hPa NE 5mph /  8.0km/h 7mph /  11.3km/h 70% 0in /  0.0mm CLR
09:40 67.6 °F /  19.8 °C 57.6 °F /  14.2 °C 29.9in /  1011.3hPa NNE 5mph /  8.0km/h 7mph /  11.3km/h 70% 0in /  0.0mm CLR
09:45 68 °F /  20.0 °C 57 °F /  13.9 °C 29.9in /  1011.3hPa NNE 5mph /  8.0km/h 6mph /  9.7km/h 68% 0in /  0.0mm CLR
09:50 68.4 °F /  20.2 °C 57 °F /  13.9 °C 29.9in /  1011.2hPa NE 3mph /  4.8km/h 9mph /  14.5km/h 67% 0in /  0.0mm CLR
09:55 68.4 °F /  20.2 °C 57.4 °F /  14.1 °C 29.9in /  1011.2hPa NE 3mph /  4.8km/h 6mph /  9.7km/h 68% 0in /  0.0mm CLR
10:00 68.5 °F /  20.3 °C 57 °F /  13.9 °C 29.9in /  1011.2hPa NE 3mph /  4.8km/h 7mph /  11.3km/h 67% 0in /  0.0mm CLR
10:05 68.7 °F /  20.4 °C 56.5 °F /  13.6 °C 29.9in /  1011.1hPa NE 3mph /  4.8km/h 8mph /  12.9km/h 65% 0in /  0.0mm CLR
10:10 68.9 °F /  20.5 °C 56.1 °F /  13.4 °C 29.9in /  1011.1hPa NNE 5mph /  8.0km/h 9mph /  14.5km/h 64% 0in /  0.0mm CLR
10:15 68.5 °F /  20.3 °C 55.4 °F /  13.0 °C 29.9in /  1011.1hPa NE 4.3mph /  6.9km/h 6.9mph /  11.1km/h 63% 0in /  0.0mm CLR
10:20 68.5 °F /  20.3 °C 55.4 °F /  13.0 °C 29.9in /  1010.9hPa NE 6mph /  9.7km/h 9mph /  14.5km/h 63% 0in /  0.0mm CLR
10:25 68.9 °F /  20.5 °C 55.4 °F /  13.0 °C 29.9in /  1010.9hPa NE 6mph /  9.7km/h 8mph /  12.9km/h 62% 0in /  0.0mm CLR
10:30 69.4 °F /  20.8 °C 55.4 °F /  13.0 °C 29.9in /  1010.9hPa NE 5mph /  8.0km/h 8mph /  12.9km/h 61% 0in /  0.0mm CLR
10:35 69.6 °F /  20.9 °C 55.6 °F /  13.1 °C 29.9in /  1010.9hPa NE 5mph /  8.0km/h 9mph /  14.5km/h 61% 0in /  0.0mm CLR
10:40 70.2 °F /  21.2 °C 54.7 °F /  12.6 °C 29.9in /  1010.9hPa NE 5mph /  8.0km/h 11mph /  17.7km/h 58% 0in /  0.0mm CLR
10:45 69.6 °F /  20.9 °C 54.7 °F /  12.6 °C 29.9in /  1010.9hPa NE 5mph /  8.0km/h 11mph /  17.7km/h 59% 0in /  0.0mm CLR
10:50 70 °F /  21.1 °C 53.1 °F /  11.7 °C 29.8in /  1010.7hPa East 5.4mph /  8.7km/h 9.2mph /  14.8km/h 55% 0in /  0.0mm CLR
10:55 70.2 °F /  21.2 °C 53.2 °F /  11.8 °C 29.8in /  1010.7hPa ENE 6mph /  9.7km/h 11mph /  17.7km/h 55% 0in /  0.0mm CLR
11:00 70.5 °F /  21.4 °C 53.4 °F /  11.9 °C 29.8in /  1010.7hPa ENE 6mph /  9.7km/h 10mph /  16.1km/h 55% 0in /  0.0mm CLR
11:05 70.3 °F /  21.3 °C 52.9 °F /  11.6 °C 29.9in /  1010.8hPa NE 6mph /  9.7km/h 10mph /  16.1km/h 54% 0in /  0.0mm CLR
11:10 70.2 °F /  21.2 °C 52.2 °F /  11.2 °C 29.9in /  1010.8hPa NE 6mph /  9.7km/h 9mph /  14.5km/h 53% 0in /  0.0mm CLR
11:15 70.5 °F /  21.4 °C 52.5 °F /  11.4 °C 29.9in /  1010.8hPa NE 6mph /  9.7km/h 10mph /  16.1km/h 53% 0in /  0.0mm CLR
11:20 70.9 °F /  21.6 °C 52.9 °F /  11.6 °C 29.8in /  1010.6hPa NE 6mph /  9.7km/h 9mph /  14.5km/h 53% 0in /  0.0mm CLR
11:25 71.2 °F /  21.8 °C 53.2 °F /  11.8 °C 29.8in /  1010.6hPa NE 5.9mph /  9.5km/h 4.6mph /  7.4km/h 53% 0in /  0.0mm CLR
11:30 71.8 °F /  22.1 °C 52.2 °F /  11.2 °C 29.8in /  1010.6hPa NE 3mph /  4.8km/h 15mph /  24.1km/h 50% 0in /  0.0mm CLR
11:35 71.8 °F /  22.1 °C 49.8 °F /  9.9 °C 29.8in /  1010.5hPa NE 3mph /  4.8km/h 12mph /  19.3km/h 46% 0in /  0.0mm CLR
11:40 72 °F /  22.2 °C 50 °F /  10.0 °C 29.8in /  1010.5hPa ENE 6mph /  9.7km/h 9mph /  14.5km/h 46% 0in /  0.0mm CLR
11:45 72 °F /  22.2 °C 51.3 °F /  10.7 °C 29.8in /  1010.5hPa NE 6mph /  9.7km/h 10mph /  16.1km/h 48% 0in /  0.0mm CLR
11:50 72.3 °F /  22.4 °C 51.1 °F /  10.6 °C 29.8in /  1010.3hPa NE 6mph /  9.7km/h 16mph /  25.7km/h 47% 0in /  0.0mm CLR
11:55 71.8 °F /  22.1 °C 50.5 °F /  10.3 °C 29.8in /  1010.3hPa NE 6mph /  9.7km/h 16mph /  25.7km/h 47% 0in /  0.0mm CLR
11:59 71.8 °F /  22.1 °C 50.5 °F /  10.3 °C 29.8in /  1010.3hPa East 8.1mph /  13.0km/h 8.1mph /  13.0km/h 47% 0in /  0.0mm CLR
12:05 72.1 °F /  22.3 °C 50.2 °F /  10.1 °C 29.8in /  1010.2hPa NE 8mph /  12.9km/h 15mph /  24.1km/h 46% 0in /  0.0mm CLR
12:10 72.1 °F /  22.3 °C 50.2 °F /  10.1 °C 29.8in /  1010.2hPa NE 6mph /  9.7km/h 11mph /  17.7km/h 46% 0in /  0.0mm CLR
12:15 72.3 °F /  22.4 °C 51.1 °F /  10.6 °C 29.8in /  1010.2hPa NE 6mph /  9.7km/h 13mph /  20.9km/h 47% 0in /  0.0mm CLR
12:20 72.7 °F /  22.6 °C 51.3 °F /  10.7 °C 29.8in /  1010.0hPa NE 7mph /  11.3km/h 14mph /  22.5km/h 47% 0in /  0.0mm CLR
12:25 72.9 °F /  22.7 °C 51.4 °F /  10.8 °C 29.8in /  1010.0hPa NE 7mph /  11.3km/h 16mph /  25.7km/h 47% 0in /  0.0mm CLR
12:30 73 °F /  22.8 °C 51.1 °F /  10.6 °C 29.8in /  1010.0hPa NE 9mph /  14.5km/h 16mph /  25.7km/h 46% 0in /  0.0mm CLR
12:34 73 °F /  22.8 °C 51.1 °F /  10.6 °C 29.8in /  1009.9hPa East 8.7mph /  14.0km/h 6.9mph /  11.1km/h 46% 0in /  0.0mm CLR
12:40 73.4 °F /  23.0 °C 51.4 °F /  10.8 °C 29.8in /  1009.9hPa NE 6mph /  9.7km/h 15mph /  24.1km/h 46% 0in /  0.0mm CLR
12:45 73.2 °F /  22.9 °C 51.3 °F /  10.7 °C 29.8in /  1009.9hPa NE 6mph /  9.7km/h 14mph /  22.5km/h 46% 0in /  0.0mm CLR
12:50 73 °F /  22.8 °C 51.6 °F /  10.9 °C 29.8in /  1009.6hPa NE 9mph /  14.5km/h 15mph /  24.1km/h 47% 0in /  0.0mm CLR
12:55 72.9 °F /  22.7 °C 52 °F /  11.1 °C 29.8in /  1009.6hPa NE 9mph /  14.5km/h 16mph /  25.7km/h 48% 0in /  0.0mm CLR
12:59 73 °F /  22.8 °C 52.2 °F /  11.2 °C 29.8in /  1009.6hPa SE 8.1mph /  13.0km/h 8.1mph /  13.0km/h 48% 0in /  0.0mm CLR
13:04 73.8 °F /  23.2 °C 52.9 °F /  11.6 °C 29.8in /  1009.5hPa NE 8.1mph /  13.0km/h 11.5mph /  18.5km/h 48% 0in /  0.0mm CLR
13:10 73.9 °F /  23.3 °C 53.1 °F /  11.7 °C 29.8in /  1009.5hPa NE 7mph /  11.3km/h 14mph /  22.5km/h 48% 0in /  0.0mm CLR
13:15 73.8 °F /  23.2 °C 52.9 °F /  11.6 °C 29.8in /  1009.5hPa NE 7mph /  11.3km/h 13mph /  20.9km/h 48% 0in /  0.0mm CLR
13:20 73 °F /  22.8 °C 52.9 °F /  11.6 °C 29.8in /  1009.4hPa NE 9mph /  14.5km/h 16mph /  25.7km/h 49% 0in /  0.0mm CLR
13:25 73.6 °F /  23.1 °C 53.2 °F /  11.8 °C 29.8in /  1009.4hPa NE 9mph /  14.5km/h 14mph /  22.5km/h 49% 0in /  0.0mm CLR
13:30 73.8 °F /  23.2 °C 54 °F /  12.2 °C 29.8in /  1009.4hPa NNE 8.5mph /  13.7km/h 10.4mph /  16.7km/h 50% 0in /  0.0mm CLR
13:35 73.9 °F /  23.3 °C 53.6 °F /  12.0 °C 29.8in /  1009.2hPa NE 8mph /  12.9km/h 15mph /  24.1km/h 49% 0in /  0.0mm CLR
13:40 73.8 °F /  23.2 °C 53.4 °F /  11.9 °C 29.8in /  1009.2hPa NE 8mph /  12.9km/h 14mph /  22.5km/h 49% 0in /  0.0mm CLR
13:45 73.4 °F /  23.0 °C 53.1 °F /  11.7 °C 29.8in /  1009.2hPa NE 8.5mph /  13.7km/h 17.3mph /  27.8km/h 49% 0in /  0.0mm CLR
13:50 73.2 °F /  22.9 °C 53.4 °F /  11.9 °C 29.8in /  1009.0hPa NE 10mph /  16.1km/h 20mph /  32.2km/h 50% 0in /  0.0mm CLR
13:55 73.8 °F /  23.2 °C 54 °F /  12.2 °C 29.8in /  1009.0hPa ENE 10mph /  16.1km/h 16mph /  25.7km/h 50% 0in /  0.0mm CLR
13:59 73.9 °F /  23.3 °C 54.1 °F /  12.3 °C 29.8in /  1009.0hPa ENE 8.5mph /  13.7km/h 12.7mph /  20.4km/h 50% 0in /  0.0mm CLR
14:05 74.1 °F /  23.4 °C 53.8 °F /  12.1 °C 29.8in /  1008.7hPa NE 8mph /  12.9km/h 17mph /  27.4km/h 49% 0in /  0.0mm CLR
14:10 74.1 °F /  23.4 °C 53.8 °F /  12.1 °C 29.8in /  1008.7hPa NE 9mph /  14.5km/h 16mph /  25.7km/h 49% 0in /  0.0mm CLR
14:14 74.1 °F /  23.4 °C 53.8 °F /  12.1 °C 29.8in /  1008.7hPa NE 9.7mph /  15.6km/h 17.3mph /  27.8km/h 49% 0in /  0.0mm CLR
14:20 74.3 °F /  23.5 °C 54.5 °F /  12.5 °C 29.8in /  1008.7hPa NE 9mph /  14.5km/h 15mph /  24.1km/h 50% 0in /  0.0mm CLR
14:24 74.1 °F /  23.4 °C 54.3 °F /  12.4 °C 29.8in /  1008.7hPa NE 8.7mph /  14.0km/h 16.1mph /  25.9km/h 50% 0in /  0.0mm CLR
14:30 74.5 °F /  23.6 °C 54.7 °F /  12.6 °C 29.8in /  1008.7hPa NE 9mph /  14.5km/h 17mph /  27.4km/h 50% 0in /  0.0mm CLR
14:35 74.1 °F /  23.4 °C 53.8 °F /  12.1 °C 29.8in /  1008.4hPa NE 9mph /  14.5km/h 21mph /  33.8km/h 49% 0in /  0.0mm CLR
14:40 74.1 °F /  23.4 °C 53.8 °F /  12.1 °C 29.8in /  1008.4hPa NE 12mph /  19.3km/h 18mph /  29.0km/h 49% 0in /  0.0mm CLR
14:45 73.9 °F /  23.3 °C 54.1 °F /  12.3 °C 29.8in /  1008.4hPa NE 12mph /  19.3km/h 17mph /  27.4km/h 50% 0in /  0.0mm CLR
14:49 74.3 °F /  23.5 °C 54.5 °F /  12.5 °C 29.8in /  1008.2hPa ENE 10.2mph /  16.4km/h 20.7mph /  33.3km/h 50% 0in /  0.0mm CLR
14:54 74.5 °F /  23.6 °C 53.4 °F /  11.9 °C 29.8in /  1008.2hPa ESE 10.2mph /  16.4km/h 26.5mph /  42.6km/h 48% 0in /  0.0mm CLR
15:00 74.8 °F /  23.8 °C 52.7 °F /  11.5 °C 29.8in /  1008.2hPa East 10mph /  16.1km/h 18mph /  29.0km/h 46% 0in /  0.0mm CLR
15:04 75.4 °F /  24.1 °C 53.2 °F /  11.8 °C 29.8in /  1007.9hPa ESE 10.2mph /  16.4km/h 14mph /  22.5km/h 46% 0in /  0.0mm CLR
15:10 75 °F /  23.9 °C 52.9 °F /  11.6 °C 29.8in /  1007.9hPa ESE 9mph /  14.5km/h 15mph /  24.1km/h 46% 0in /  0.0mm CLR
15:15 75 °F /  23.9 °C 53.4 °F /  11.9 °C 29.8in /  1007.9hPa SE 9mph /  14.5km/h 14mph /  22.5km/h 47% 0in /  0.0mm CLR
15:20 75 °F /  23.9 °C 53.4 °F /  11.9 °C 29.8in /  1007.6hPa SE 8mph /  12.9km/h 14mph /  22.5km/h 47% 0in /  0.0mm CLR
15:24 75 °F /  23.9 °C 53.4 °F /  11.9 °C 29.8in /  1007.6hPa ESE 8.1mph /  13.0km/h 12.7mph /  20.4km/h 47% 0in /  0.0mm CLR
15:29 75.4 °F /  24.1 °C 53.8 °F /  12.1 °C 29.8in /  1007.6hPa ESE 8.1mph /  13.0km/h 11.5mph /  18.5km/h 47% 0in /  0.0mm CLR
15:34 75.4 °F /  24.1 °C 54.3 °F /  12.4 °C 29.8in /  1007.4hPa SE 8.1mph /  13.0km/h 10.2mph /  16.4km/h 48% 0in /  0.0mm CLR
15:40 75.4 °F /  24.1 °C 55.4 °F /  13.0 °C 29.8in /  1007.4hPa ESE 8mph /  12.9km/h 17mph /  27.4km/h 50% 0in /  0.0mm CLR
15:44 75.4 °F /  24.1 °C 54.9 °F /  12.7 °C 29.8in /  1007.4hPa ESE 7.6mph /  12.2km/h 11.5mph /  18.5km/h 49% 0in /  0.0mm CLR
15:50 75.2 °F /  24.0 °C 55.2 °F /  12.9 °C 29.8in /  1007.4hPa ESE 9mph /  14.5km/h 16mph /  25.7km/h 50% 0in /  0.0mm CLR
15:55 75 °F /  23.9 °C 55 °F /  12.8 °C 29.8in /  1007.4hPa ESE 9mph /  14.5km/h 16mph /  25.7km/h 50% 0in /  0.0mm CLR
16:00 74.8 °F /  23.8 °C 55.6 °F /  13.1 °C 29.8in /  1007.4hPa ESE 9mph /  14.5km/h 15mph /  24.1km/h 51% 0in /  0.0mm CLR
16:04 75 °F /  23.9 °C 55.8 °F /  13.2 °C 29.7in /  1007.1hPa SE 9.7mph /  15.6km/h 12.7mph /  20.4km/h 51% 0in /  0.0mm CLR
16:10 74.8 °F /  23.8 °C 55.6 °F /  13.1 °C 29.7in /  1007.1hPa ESE 9mph /  14.5km/h 19mph /  30.6km/h 51% 0in /  0.0mm CLR
16:14 74.1 °F /  23.4 °C 55.4 °F /  13.0 °C 29.7in /  1007.1hPa East 8.7mph /  14.0km/h 17.3mph /  27.8km/h 52% 0in /  0.0mm CLR
16:19 74.5 °F /  23.6 °C 56.1 °F /  13.4 °C 29.7in /  1007.0hPa SE 10.7mph /  17.2km/h 12.7mph /  20.4km/h 53% 0in /  0.0mm CLR
16:25 74.8 °F /  23.8 °C 55.6 °F /  13.1 °C 29.7in /  1007.0hPa ESE 10mph /  16.1km/h 15mph /  24.1km/h 51% 0in /  0.0mm CLR
16:30 74.8 °F /  23.8 °C 56.1 °F /  13.4 °C 29.7in /  1007.0hPa ESE 8mph /  12.9km/h 18mph /  29.0km/h 52% 0in /  0.0mm CLR
16:35 74.7 °F /  23.7 °C 55.9 °F /  13.3 °C 29.7in /  1006.8hPa ESE 8mph /  12.9km/h 18mph /  29.0km/h 52% 0in /  0.0mm CLR
16:39 74.5 °F /  23.6 °C 55.2 °F /  12.9 °C 29.7in /  1006.8hPa ESE 10mph /  16.1km/h 15mph /  24.1km/h 51% 0in /  0.0mm CLR
16:44 74.8 °F /  23.8 °C 55.6 °F /  13.1 °C 29.7in /  1006.8hPa ESE 10mph /  16.1km/h 15mph /  24.1km/h 51% 0in /  0.0mm CLR
16:50 74.8 °F /  23.8 °C 56.1 °F /  13.4 °C 29.7in /  1006.5hPa ESE 8mph /  12.9km/h 13mph /  20.9km/h 52% 0in /  0.0mm CLR
16:54 75.2 °F /  24.0 °C 55.8 °F /  13.2 °C 29.7in /  1006.5hPa East 8.5mph /  13.7km/h 13.8mph /  22.2km/h 51% 0in /  0.0mm CLR
16:59 74.8 °F /  23.8 °C 55.9 °F /  13.3 °C 29.7in /  1006.5hPa ESE 7.4mph /  11.9km/h 13.8mph /  22.2km/h 52% 0in /  0.0mm CLR
17:05 74.7 °F /  23.7 °C 55.8 °F /  13.2 °C 29.7in /  1006.4hPa ESE 7mph /  11.3km/h 15mph /  24.1km/h 52% 0in /  0.0mm CLR
17:09 74.5 °F /  23.6 °C 56.1 °F /  13.4 °C 29.7in /  1006.4hPa East 8.5mph /  13.7km/h 12.7mph /  20.4km/h 53% 0in /  0.0mm CLR
17:15 73.9 °F /  23.3 °C 55.8 °F /  13.2 °C 29.7in /  1006.4hPa ENE 8mph /  12.9km/h 14mph /  22.5km/h 53% 0in /  0.0mm CLR
17:19 73.8 °F /  23.2 °C 55.6 °F /  13.1 °C 29.7in /  1006.2hPa NE 6.2mph /  10.0km/h 12.7mph /  20.4km/h 53% 0in /  0.0mm CLR
17:25 74.1 °F /  23.4 °C 55.8 °F /  13.2 °C 29.7in /  1006.2hPa East 6mph /  9.7km/h 12mph /  19.3km/h 53% 0in /  0.0mm CLR
17:29 74.5 °F /  23.6 °C 56.1 °F /  13.4 °C 29.7in /  1006.2hPa SE 7.4mph /  11.9km/h 9.2mph /  14.8km/h 53% 0in /  0.0mm CLR
17:35 74.5 °F /  23.6 °C 55.8 °F /  13.2 °C 29.7in /  1006.0hPa ESE 7mph /  11.3km/h 15mph /  24.1km/h 52% 0in /  0.0mm CLR
17:40 73.9 °F /  23.3 °C 55.8 °F /  13.2 °C 29.7in /  1006.0hPa ESE 8mph /  12.9km/h 17mph /  27.4km/h 53% 0in /  0.0mm CLR
17:45 73.8 °F /  23.2 °C 56.1 °F /  13.4 °C 29.7in /  1006.0hPa ESE 8mph /  12.9km/h 17mph /  27.4km/h 54% 0in /  0.0mm CLR
17:50 73.4 °F /  23.0 °C 56.1 °F /  13.4 °C 29.7in /  1005.9hPa ESE 10mph /  16.1km/h 16mph /  25.7km/h 55% 0in /  0.0mm CLR
17:54 73.6 °F /  23.1 °C 56.5 °F /  13.6 °C 29.7in /  1005.9hPa ESE 10.7mph /  17.2km/h 17.3mph /  27.8km/h 55% 0in /  0.0mm CLR
18:00 73.6 °F /  23.1 °C 56.5 °F /  13.6 °C 29.7in /  1005.9hPa SE 9mph /  14.5km/h 17mph /  27.4km/h 55% 0in /  0.0mm CLR
18:05 73.2 °F /  22.9 °C 56.7 °F /  13.7 °C 29.7in /  1005.9hPa SE 8.7mph /  14.0km/h 16.1mph /  25.9km/h 56% 0in /  0.0mm CLR
18:09 73.2 °F /  22.9 °C 56.7 °F /  13.7 °C 29.7in /  1005.9hPa ESE 10.2mph /  16.4km/h 14.7mph /  23.7km/h 56% 0in /  0.0mm CLR
18:14 73.2 °F /  22.9 °C 56.7 °F /  13.7 °C 29.7in /  1005.9hPa ESE 10.2mph /  16.4km/h 12.7mph /  20.4km/h 56% 0in /  0.0mm CLR
18:20 73.8 °F /  23.2 °C 57 °F /  13.9 °C 29.7in /  1005.7hPa ESE 8mph /  12.9km/h 16mph /  25.7km/h 56% 0in /  0.0mm CLR
18:24 72.9 °F /  22.7 °C 56.7 °F /  13.7 °C 29.7in /  1005.7hPa SE 8.1mph /  13.0km/h 17.3mph /  27.8km/h 57% 0in /  0.0mm CLR
18:29 72.7 °F /  22.6 °C 56.7 °F /  13.7 °C 29.7in /  1005.7hPa ESE 10.2mph /  16.4km/h 12.7mph /  20.4km/h 57% 0in /  0.0mm CLR
18:34 72.7 °F /  22.6 °C 56.7 °F /  13.7 °C 29.7in /  1005.6hPa ESE 10.2mph /  16.4km/h 15mph /  24.1km/h 57% 0in /  0.0mm CLR
18:39 72.3 °F /  22.4 °C 56.1 °F /  13.4 °C 29.7in /  1005.6hPa SE 10mph /  16.1km/h 17.3mph /  27.8km/h 57% 0in /  0.0mm CLR
18:44 72.1 °F /  22.3 °C 56.5 °F /  13.6 °C 29.7in /  1005.6hPa ESE 10mph /  16.1km/h 15.9mph /  25.6km/h 58% 0in /  0.0mm CLR
18:50 72 °F /  22.2 °C 56.5 °F /  13.6 °C 29.7in /  1005.6hPa ESE 12mph /  19.3km/h 17mph /  27.4km/h 58% 0in /  0.0mm CLR
18:54 71.8 °F /  22.1 °C 56.7 °F /  13.7 °C 29.7in /  1005.6hPa SE 11.8mph /  19.0km/h 11.5mph /  18.5km/h 59% 0in /  0.0mm CLR
19:00 71.8 °F /  22.1 °C 56.1 °F /  13.4 °C 29.7in /  1005.6hPa ESE 10mph /  16.1km/h 17mph /  27.4km/h 58% 0in /  0.0mm CLR
19:04 71.8 °F /  22.1 °C 56.1 °F /  13.4 °C 29.7in /  1005.4hPa ESE 10mph /  16.1km/h 15mph /  24.1km/h 58% 0in /  0.0mm CLR
19:09 71.4 °F /  21.9 °C 56.3 °F /  13.5 °C 29.7in /  1005.4hPa East 10.7mph /  17.2km/h 15mph /  24.1km/h 59% 0in /  0.0mm CLR
19:14 71.2 °F /  21.8 °C 56.1 °F /  13.4 °C 29.7in /  1005.4hPa SE 10.7mph /  17.2km/h 15mph /  24.1km/h 59% 0in /  0.0mm CLR
19:20 71.1 °F /  21.7 °C 55.9 °F /  13.3 °C 29.7in /  1005.4hPa ESE 10mph /  16.1km/h 18mph /  29.0km/h 59% 0in /  0.0mm CLR
19:24 71.1 °F /  21.7 °C 55.9 °F /  13.3 °C 29.7in /  1005.4hPa SE 10mph /  16.1km/h 15mph /  24.1km/h 59% 0in /  0.0mm CLR
19:29 71.1 °F /  21.7 °C 55.9 °F /  13.3 °C 29.7in /  1005.4hPa ESE 9.2mph /  14.8km/h 17.3mph /  27.8km/h 59% 0in /  0.0mm CLR
19:34 70.9 °F /  21.6 °C 55.8 °F /  13.2 °C 29.7in /  1005.3hPa ENE 9.2mph /  14.8km/h 13.8mph /  22.2km/h 59% 0in /  0.0mm CLR
19:39 70.5 °F /  21.4 °C 55.6 °F /  13.1 °C 29.7in /  1005.3hPa ESE 10.2mph /  16.4km/h 17.3mph /  27.8km/h 59% 0in /  0.0mm CLR
19:45 70.3 °F /  21.3 °C 55.8 °F /  13.2 °C 29.7in /  1005.3hPa ESE 10mph /  16.1km/h 17mph /  27.4km/h 60% 0in /  0.0mm CLR
19:49 70.3 °F /  21.3 °C 55.8 °F /  13.2 °C 29.7in /  1005.2hPa ESE 10mph /  16.1km/h 18.4mph /  29.6km/h 60% 0in /  0.0mm CLR
19:55 70.2 °F /  21.2 °C 55.6 °F /  13.1 °C 29.7in /  1005.2hPa ESE 10mph /  16.1km/h 17mph /  27.4km/h 60% 0in /  0.0mm CLR
19:59 70.2 °F /  21.2 °C 55.6 °F /  13.1 °C 29.7in /  1005.2hPa ESE 9.7mph /  15.6km/h 12.7mph /  20.4km/h 60% 0in /  0.0mm CLR
20:05 70.2 °F /  21.2 °C 55.9 °F /  13.3 °C 29.7in /  1005.0hPa ESE 9mph /  14.5km/h 13mph /  20.9km/h 61% 0in /  0.0mm CLR
20:09 70 °F /  21.1 °C 55.9 °F /  13.3 °C 29.7in /  1005.0hPa ESE 8.1mph /  13.0km/h 9.2mph /  14.8km/h 61% 0in /  0.0mm CLR
20:14 70 °F /  21.1 °C 55.9 °F /  13.3 °C 29.7in /  1005.0hPa ESE 8.1mph /  13.0km/h 9.2mph /  14.8km/h 61% 0in /  0.0mm CLR
20:19 70 °F /  21.1 °C 56.5 °F /  13.6 °C 29.7in /  1005.1hPa ESE 6.2mph /  10.0km/h 6.9mph /  11.1km/h 62% 0in /  0.0mm CLR
20:24 70 °F /  21.1 °C 56.5 °F /  13.6 °C 29.7in /  1005.1hPa East 6.2mph /  10.0km/h 13.8mph /  22.2km/h 62% 0in /  0.0mm CLR
20:29 69.8 °F /  21.0 °C 56.7 °F /  13.7 °C 29.7in /  1005.1hPa SE 6.9mph /  11.1km/h 7.4mph /  11.9km/h 63% 0in /  0.0mm CLR
20:34 69.6 °F /  20.9 °C 56.8 °F /  13.8 °C 29.7in /  1005.0hPa ESE 6.9mph /  11.1km/h 11.5mph /  18.5km/h 64% 0in /  0.0mm CLR
20:39 69.4 °F /  20.8 °C 57.2 °F /  14.0 °C 29.7in /  1005.0hPa SE 6.2mph /  10.0km/h 8.5mph /  13.7km/h 65% 0in /  0.0mm CLR
20:44 69.3 °F /  20.7 °C 57 °F /  13.9 °C 29.7in /  1005.0hPa ESE 6.2mph /  10.0km/h 9.2mph /  14.8km/h 65% 0in /  0.0mm CLR
20:50 69.4 °F /  20.8 °C 57.2 °F /  14.0 °C 29.7in /  1005.0hPa ESE 6mph /  9.7km/h 11mph /  17.7km/h 65% 0in /  0.0mm CLR
20:55 69.3 °F /  20.7 °C 57.4 °F /  14.1 °C 29.7in /  1005.0hPa ESE 6mph /  9.7km/h 15mph /  24.1km/h 66% 0in /  0.0mm CLR
20:59 69.1 °F /  20.6 °C 57.2 °F /  14.0 °C 29.7in /  1005.0hPa SE 6.4mph /  10.3km/h 4.7mph /  7.6km/h 66% 0in /  0.0mm CLR
21:04 69.1 °F /  20.6 °C 57.2 °F /  14.0 °C 29.7in /  1004.8hPa ESE 6.4mph /  10.3km/h 5.8mph /  9.3km/h 66% 0in /  0.0mm CLR
21:09 69.1 °F /  20.6 °C 57.2 °F /  14.0 °C 29.7in /  1004.8hPa ESE 4mph /  6.4km/h 10.4mph /  16.7km/h 66% 0in /  0.0mm CLR
21:15 68.9 °F /  20.5 °C 57 °F /  13.9 °C 29.7in /  1004.8hPa SE 5mph /  8.0km/h 9mph /  14.5km/h 66% 0in /  0.0mm CLR
21:19 68.7 °F /  20.4 °C 56.8 °F /  13.8 °C 29.7in /  1004.7hPa SE 5.2mph /  8.4km/h 4.6mph /  7.4km/h 66% 0in /  0.0mm CLR
21:24 68.7 °F /  20.4 °C 56.8 °F /  13.8 °C 29.7in /  1004.7hPa East 5.2mph /  8.4km/h 5.2mph /  8.4km/h 66% 0in /  0.0mm CLR
21:29 68.5 °F /  20.3 °C 56.7 °F /  13.7 °C 29.7in /  1004.7hPa SE 2.9mph /  4.7km/h 6.9mph /  11.1km/h 66% 0in /  0.0mm CLR
21:34 68.4 °F /  20.2 °C 56.7 °F /  13.7 °C 29.7in /  1004.8hPa SSE 2.9mph /  4.7km/h 5.9mph /  9.5km/h 66% 0in /  0.0mm CLR
21:39 68.4 °F /  20.2 °C 57 °F /  13.9 °C 29.7in /  1004.8hPa SE 5.2mph /  8.4km/h 4.7mph /  7.6km/h 67% 0in /  0.0mm CLR
21:44 68.4 °F /  20.2 °C 57 °F /  13.9 °C 29.7in /  1004.8hPa SE 5.2mph /  8.4km/h 4.3mph /  6.9km/h 67% 0in /  0.0mm CLR
21:49 68.2 °F /  20.1 °C 56.8 °F /  13.8 °C 29.7in /  1004.8hPa SE 3.1mph /  5.0km/h 8.1mph /  13.0km/h 67% 0in /  0.0mm CLR
21:54 68.2 °F /  20.1 °C 56.8 °F /  13.8 °C 29.7in /  1004.8hPa ESE 3.1mph /  5.0km/h 5.8mph /  9.3km/h 67% 0in /  0.0mm CLR
21:59 67.8 °F /  19.9 °C 56.5 °F /  13.6 °C 29.7in /  1004.8hPa East 4mph /  6.4km/h 6.9mph /  11.1km/h 67% 0in /  0.0mm CLR
22:04 67.6 °F /  19.8 °C 56.7 °F /  13.7 °C 29.7in /  1004.8hPa East 4mph /  6.4km/h 4.7mph /  7.6km/h 68% 0in /  0.0mm CLR
22:09 67.5 °F /  19.7 °C 56.5 °F /  13.6 °C 29.7in /  1004.8hPa NE 4mph /  6.4km/h 3.5mph /  5.6km/h 68% 0in /  0.0mm CLR
22:14 67.5 °F /  19.7 °C 56.5 °F /  13.6 °C 29.7in /  1004.8hPa East 4mph /  6.4km/h 4mph /  6.4km/h 68% 0in /  0.0mm CLR
22:20 67.3 °F /  19.6 °C 56.5 °F /  13.6 °C 29.7in /  1004.8hPa ENE 2mph /  3.2km/h 5mph /  8.0km/h 68% 0in /  0.0mm CLR
22:24 67.3 °F /  19.6 °C 56.5 °F /  13.6 °C 29.7in /  1004.8hPa NE 2.4mph /  3.9km/h 3.5mph /  5.6km/h 68% 0in /  0.0mm CLR
22:29 67.1 °F /  19.5 °C 56.1 °F /  13.4 °C 29.7in /  1004.8hPa NNE 2.4mph /  3.9km/h 4.6mph /  7.4km/h 68% 0in /  0.0mm CLR
22:34 66.9 °F /  19.4 °C 56.5 °F /  13.6 °C 29.7in /  1004.8hPa NE 2.4mph /  3.9km/h 5.8mph /  9.3km/h 69% 0in /  0.0mm CLR
22:39 66.7 °F /  19.3 °C 56.1 °F /  13.4 °C 29.7in /  1004.8hPa NE 3.6mph /  5.8km/h 4.7mph /  7.6km/h 69% 0in /  0.0mm CLR
22:44 66.6 °F /  19.2 °C 56.5 °F /  13.6 °C 29.7in /  1004.8hPa NE 3.6mph /  5.8km/h 4.6mph /  7.4km/h 70% 0in /  0.0mm CLR
22:49 66.2 °F /  19.0 °C 56.1 °F /  13.4 °C 29.7in /  1004.8hPa North 3.6mph /  5.8km/h 5.8mph /  9.3km/h 70% 0in /  0.0mm CLR
22:54 66 °F /  18.9 °C 55.9 °F /  13.3 °C 29.7in /  1004.8hPa NE 3.6mph /  5.8km/h 5.8mph /  9.3km/h 70% 0in /  0.0mm CLR
22:59 65.8 °F /  18.8 °C 56.1 °F /  13.4 °C 29.7in /  1004.8hPa ENE 4mph /  6.4km/h 6.9mph /  11.1km/h 71% 0in /  0.0mm CLR
23:04 65.7 °F /  18.7 °C 55.9 °F /  13.3 °C 29.7in /  1004.8hPa NE 4mph /  6.4km/h 6.9mph /  11.1km/h 71% 0in /  0.0mm CLR
23:09 65.5 °F /  18.6 °C 55.8 °F /  13.2 °C 29.7in /  1004.8hPa North 4.3mph /  6.9km/h 4.6mph /  7.4km/h 71% 0in /  0.0mm CLR
23:14 65.7 °F /  18.7 °C 56.5 °F /  13.6 °C 29.7in /  1004.8hPa ENE 4.3mph /  6.9km/h 4.6mph /  7.4km/h 72% 0in /  0.0mm CLR
23:19 65.5 °F /  18.6 °C 56.1 °F /  13.4 °C 29.7in /  1004.7hPa ENE 4mph /  6.4km/h 8.1mph /  13.0km/h 72% 0in /  0.0mm CLR
23:24 65.3 °F /  18.5 °C 56.5 °F /  13.6 °C 29.7in /  1004.7hPa NE 4mph /  6.4km/h 5.8mph /  9.3km/h 73% 0in /  0.0mm CLR
23:29 65.1 °F /  18.4 °C 56.1 °F /  13.4 °C 29.7in /  1004.7hPa NNE 4mph /  6.4km/h 4.6mph /  7.4km/h 73% 0in /  0.0mm CLR
23:34 65.1 °F /  18.4 °C 56.7 °F /  13.7 °C 29.7in /  1004.4hPa ENE 4mph /  6.4km/h 4.6mph /  7.4km/h 74% 0in /  0.0mm CLR
23:39 65.1 °F /  18.4 °C 56.7 °F /  13.7 °C 29.7in /  1004.4hPa NE 3.1mph /  5.0km/h 5.8mph /  9.3km/h 74% 0in /  0.0mm CLR
23:44 64.9 °F /  18.3 °C 56.8 °F /  13.8 °C 29.7in /  1004.4hPa NE 3.1mph /  5.0km/h 4.7mph /  7.6km/h 75% 0in /  0.0mm CLR
23:49 64.8 °F /  18.2 °C 56.7 °F /  13.7 °C 29.7in /  1004.3hPa North 4.3mph /  6.9km/h 6.9mph /  11.1km/h 75% 0in /  0.0mm CLR
23:54 64.6 °F /  18.1 °C 57.2 °F /  14.0 °C 29.7in /  1004.3hPa NE 4.3mph /  6.9km/h 6.9mph /  11.1km/h 77% 0in /  0.0mm CLR
23:59 64.6 °F /  18.1 °C 57.6 °F /  14.2 °C 29.7in /  1004.3hPa NE 4.3mph /  6.9km/h 4.6mph /  7.4km/h 78% 0in /  0.0mm CLR
Murcia-Puente Tocinos, España
Compliments of Weather Underground - 2.75 mb

La estación de MeteoMurcia.com, publica sus datos en los siguientes proyectos:

Weather Underground PWS IMURCIAP2 Meteoclimatic www.awekas.at

W3Counter
Web Analytics